Skip Navigation LinksHome page > Weather > Current weather Skip Navigation Links

Current Weather

Heathrow, London

For information only: do not use for flight planning or navigation.
Latest weather
Observation time Tuesday, October 19, 2021 10:20 PM BST
Local time Tuesday, October 19, 2021 10:55 PM BST
Flight conditions Instrument Meteorological Conditions
Winds
Wind direction South-Southwest (210°)
Wind speed 15 mph
Visibility 4.3 mi.
Present weather light rain, recent rain
Sky condition
Ceiling 900 ft. broken clouds
Cloud layer broken clouds 900 ft.
Cloud layer overcast 1,600 ft.
Temperature 63°F
Dewpoint 61°F
Altimeter 29.77 in.Hg
Derived measurements
Relative humidity 94%
Density altitude 663 ft.
Remarks
Fully automated report.
METAR EGLL 192120Z AUTO 21013KT 7000 -RA BKN009 OVC016 17/16 Q1008 RERA REDZ

Settings

Location code

InnerDrive.Weather 4.0.6770.0 Release CLR 4.0.30319.42000
Copyright ©2018 Inner Drive Technology. All rights reserved. Portions Copyright ©1986-2018 David Braverman.

Find weather

Site navigation


Skip Navigation Links

Place info

Page info

PayPal - The safer, easier way to pay online!

Return home.

Copyright ©2021 Inner Drive Technology. Purveyors of fine, hand-crafted computer software. Page printed 2021-10-19T21:55:16 UTC.